sensor_id;sensor_type;location;lat;lon;timestamp;pressure;altitude;pressure_sealevel;temperature;humidity
62600;BME280;48671;48.922;2.346;2023-02-23T00:01:28;101166.53;;;9.96;74.96
62600;BME280;48671;48.922;2.346;2023-02-23T00:03:58;101169.06;;;9.99;74.75
62600;BME280;48671;48.922;2.346;2023-02-23T00:06:25;101169.91;;;10.00;74.88
62600;BME280;48671;48.922;2.346;2023-02-23T00:08:51;101169.91;;;10.00;74.78
62600;BME280;48671;48.922;2.346;2023-02-23T00:11:18;101159.66;;;9.95;74.42
62600;BME280;48671;48.922;2.346;2023-02-23T00:13:45;101170.75;;;10.00;74.60
62600;BME280;48671;48.922;2.346;2023-02-23T00:16:15;101160.47;;;9.97;74.48
62600;BME280;48671;48.922;2.346;2023-02-23T00:18:43;101162.94;;;10.00;74.61
62600;BME280;48671;48.922;2.346;2023-02-23T00:21:21;101162.09;;;10.00;74.32
62600;BME280;48671;48.922;2.346;2023-02-23T00:24:09;101161.31;;;9.98;74.31
62600;BME280;48671;48.922;2.346;2023-02-23T00:26:37;101158.75;;;9.96;74.29
62600;BME280;48671;48.922;2.346;2023-02-23T00:29:10;101165.78;;;9.93;74.23
62600;BME280;48671;48.922;2.346;2023-02-23T00:31:37;101159.75;;;9.91;74.37
62600;BME280;48671;48.922;2.346;2023-02-23T00:34:02;101156.50;;;9.84;74.25
62600;BME280;48671;48.922;2.346;2023-02-23T00:36:31;101162.50;;;9.86;74.10
62600;BME280;48671;48.922;2.346;2023-02-23T00:39:00;101154.78;;;9.83;74.28
62600;BME280;48671;48.922;2.346;2023-02-23T00:41:26;101160.75;;;9.87;74.45
62600;BME280;48671;48.922;2.346;2023-02-23T00:43:56;101156.38;;;9.89;74.35
62600;BME280;48671;48.922;2.346;2023-02-23T00:46:24;101161.56;;;9.89;74.25
62600;BME280;48671;48.922;2.346;2023-02-23T00:48:51;101165.94;;;9.88;74.32
62600;BME280;48671;48.922;2.346;2023-02-23T00:51:19;101160.84;;;9.83;73.98
62600;BME280;48671;48.922;2.346;2023-02-23T00:53:44;101160.13;;;9.78;74.17
62600;BME280;48671;48.922;2.346;2023-02-23T00:56:12;101167.13;;;9.76;73.81
62600;BME280;48671;48.922;2.346;2023-02-23T00:58:38;101167.09;;;9.78;74.08
62600;BME280;48671;48.922;2.346;2023-02-23T01:01:08;101157.63;;;9.75;74.22
62600;BME280;48671;48.922;2.346;2023-02-23T01:03:35;101159.41;;;9.73;74.48
62600;BME280;48671;48.922;2.346;2023-02-23T01:06:03;101167.88;;;9.80;74.47
62600;BME280;48671;48.922;2.346;2023-02-23T01:08:35;101171.28;;;9.82;74.13
62600;BME280;48671;48.922;2.346;2023-02-23T01:11:10;101166.94;;;9.82;74.15
62600;BME280;48671;48.922;2.346;2023-02-23T01:13:36;101176.50;;;9.82;74.12
62600;BME280;48671;48.922;2.346;2023-02-23T01:16:11;101164.56;;;9.75;74.15
62600;BME280;48671;48.922;2.346;2023-02-23T01:18:38;101162.84;;;9.74;74.41
62600;BME280;48671;48.922;2.346;2023-02-23T01:21:04;101168.88;;;9.76;74.03
62600;BME280;48671;48.922;2.346;2023-02-23T01:23:31;101158.63;;;9.70;74.23
62600;BME280;48671;48.922;2.346;2023-02-23T01:25:57;101162.91;;;9.72;74.28
62600;BME280;48671;48.922;2.346;2023-02-23T01:28:22;101156.25;;;9.62;74.09
62600;BME280;48671;48.922;2.346;2023-02-23T01:30:53;101172.41;;;9.73;74.19
62600;BME280;48671;48.922;2.346;2023-02-23T01:33:39;101171.69;;;9.68;74.22
62600;BME280;48671;48.922;2.346;2023-02-23T01:36:05;101151.19;;;9.57;74.01
62600;BME280;48671;48.922;2.346;2023-02-23T01:38:30;101169.16;;;9.65;73.90
62600;BME280;48671;48.922;2.346;2023-02-23T01:40:55;101174.28;;;9.68;74.17
62600;BME280;48671;48.922;2.346;2023-02-23T01:43:21;101154.59;;;9.59;74.09
62600;BME280;48671;48.922;2.346;2023-02-23T01:45:51;101151.34;;;9.51;73.93
62600;BME280;48671;48.922;2.346;2023-02-23T01:48:20;101152.97;;;9.55;74.07
62600;BME280;48671;48.922;2.346;2023-02-23T01:50:55;101169.97;;;9.67;73.64
62600;BME280;48671;48.922;2.346;2023-02-23T01:53:22;101170.94;;;9.63;73.82
62600;BME280;48671;48.922;2.346;2023-02-23T01:55:52;101174.41;;;9.64;73.90
62600;BME280;48671;48.922;2.346;2023-02-23T01:58:21;101172.66;;;9.64;73.84
62600;BME280;48671;48.922;2.346;2023-02-23T02:01:05;101164.94;;;9.61;73.80
62600;BME280;48671;48.922;2.346;2023-02-23T02:03:41;101174.28;;;9.68;73.80
62600;BME280;48671;48.922;2.346;2023-02-23T02:06:09;101176.00;;;9.68;73.68
62600;BME280;48671;48.922;2.346;2023-02-23T02:08:39;101173.53;;;9.65;73.61
62600;BME280;48671;48.922;2.346;2023-02-23T02:11:14;101153.00;;;9.54;73.56
62600;BME280;48671;48.922;2.346;2023-02-23T02:14:06;101162.53;;;9.55;73.22
62600;BME280;48671;48.922;2.346;2023-02-23T02:16:55;101165.88;;;9.58;74.07
62600;BME280;48671;48.922;2.346;2023-02-23T02:25:54;101165.28;;;9.49;72.63
62600;BME280;48671;48.922;2.346;2023-02-23T02:28:30;101146.38;;;9.44;73.17
62600;BME280;48671;48.922;2.346;2023-02-23T02:37:19;101168.13;;;9.40;72.79
62600;BME280;48671;48.922;2.346;2023-02-23T02:43:02;101166.50;;;9.35;72.63
62600;BME280;48671;48.922;2.346;2023-02-23T02:45:57;101172.56;;;9.36;73.12
62600;BME280;48671;48.922;2.346;2023-02-23T02:54:15;101173.56;;;9.30;72.80
62600;BME280;48671;48.922;2.346;2023-02-23T02:56:45;101167.59;;;9.27;72.62
62600;BME280;48671;48.922;2.346;2023-02-23T02:59:15;101168.56;;;9.23;72.29
62600;BME280;48671;48.922;2.346;2023-02-23T03:01:59;101168.66;;;9.18;72.70
62600;BME280;48671;48.922;2.346;2023-02-23T03:04:44;101166.91;;;9.19;72.67
62600;BME280;48671;48.922;2.346;2023-02-23T03:07:50;101166.22;;;9.13;72.33
62600;BME280;48671;48.922;2.346;2023-02-23T03:10:47;101153.38;;;9.07;72.37
62600;BME280;48671;48.922;2.346;2023-02-23T03:17:25;101153.44;;;9.04;72.35
62600;BME280;48671;48.922;2.346;2023-02-23T03:23:34;101164.75;;;9.03;72.28
62600;BME280;48671;48.922;2.346;2023-02-23T03:26:38;101163.91;;;9.01;72.32
62600;BME280;48671;48.922;2.346;2023-02-23T03:32:34;101167.34;;;9.02;72.47
62600;BME280;48671;48.922;2.346;2023-02-23T03:35:45;101170.09;;;8.96;72.46
62600;BME280;48671;48.922;2.346;2023-02-23T03:38:36;101168.41;;;8.95;72.37
62600;BME280;48671;48.922;2.346;2023-02-23T03:41:23;101173.59;;;8.95;72.59
62600;BME280;48671;48.922;2.346;2023-02-23T03:44:12;101159.13;;;8.84;72.42
62600;BME280;48671;48.922;2.346;2023-02-23T03:46:59;101172.75;;;8.93;72.32
62600;BME280;48671;48.922;2.346;2023-02-23T03:49:48;101167.56;;;8.93;72.66
62600;BME280;48671;48.922;2.346;2023-02-23T03:52:39;101163.41;;;8.87;72.06
62600;BME280;48671;48.922;2.346;2023-02-23T03:55:29;101164.22;;;8.89;72.33
62600;BME280;48671;48.922;2.346;2023-02-23T03:58:20;101165.09;;;8.89;72.14
62600;BME280;48671;48.922;2.346;2023-02-23T04:01:08;101164.22;;;8.89;72.26
62600;BME280;48671;48.922;2.346;2023-02-23T04:03:55;101160.84;;;8.85;72.11
62600;BME280;48671;48.922;2.346;2023-02-23T04:06:43;101159.13;;;8.84;72.45
62600;BME280;48671;48.922;2.346;2023-02-23T04:09:28;101160.81;;;8.87;72.57
62600;BME280;48671;48.922;2.346;2023-02-23T04:12:36;101167.63;;;8.91;72.27
62600;BME280;48671;48.922;2.346;2023-02-23T04:15:55;101174.50;;;8.92;72.14
62600;BME280;48671;48.922;2.346;2023-02-23T04:18:15;101175.41;;;8.91;72.28
62600;BME280;48671;48.922;2.346;2023-02-23T04:20:41;101175.47;;;8.89;72.14
62600;BME280;48671;48.922;2.346;2023-02-23T04:23:07;101177.19;;;8.89;71.91
62600;BME280;48671;48.922;2.346;2023-02-23T04:25:32;101179.00;;;8.85;72.05
62600;BME280;48671;48.922;2.346;2023-02-23T04:27:58;101182.44;;;8.86;72.13
62600;BME280;48671;48.922;2.346;2023-02-23T04:30:23;101178.34;;;8.77;71.89
62600;BME280;48671;48.922;2.346;2023-02-23T04:32:50;101182.75;;;8.74;72.25
62600;BME280;48671;48.922;2.346;2023-02-23T04:35:16;101167.25;;;8.71;71.84
62600;BME280;48671;48.922;2.346;2023-02-23T04:37:41;101175.06;;;8.69;71.92
62600;BME280;48671;48.922;2.346;2023-02-23T04:40:07;101193.78;;;8.82;71.59
62600;BME280;48671;48.922;2.346;2023-02-23T04:42:33;101174.22;;;8.68;72.24
62600;BME280;48671;48.922;2.346;2023-02-23T04:44:58;101185.22;;;8.80;72.07
62600;BME280;48671;48.922;2.346;2023-02-23T04:47:24;101170.72;;;8.71;72.23
62600;BME280;48671;48.922;2.346;2023-02-23T04:49:49;101186.00;;;8.83;72.25
62600;BME280;48671;48.922;2.346;2023-02-23T04:52:15;101168.94;;;8.73;72.12
62600;BME280;48671;48.922;2.346;2023-02-23T04:54:40;101179.16;;;8.79;71.93
62600;BME280;48671;48.922;2.346;2023-02-23T04:57:06;101176.59;;;8.78;72.01
62600;BME280;48671;48.922;2.346;2023-02-23T04:59:31;101186.13;;;8.77;71.10
62600;BME280;48671;48.922;2.346;2023-02-23T05:01:57;101171.75;;;8.62;71.86
62600;BME280;48671;48.922;2.346;2023-02-23T05:04:23;101181.34;;;8.59;72.04
62600;BME280;48671;48.922;2.346;2023-02-23T05:06:48;101185.63;;;8.61;71.52
62600;BME280;48671;48.922;2.346;2023-02-23T05:09:14;101192.66;;;8.56;71.32
62600;BME280;48671;48.922;2.346;2023-02-23T05:11:40;101224.34;;;8.69;72.05
62600;BME280;48671;48.922;2.346;2023-02-23T05:14:05;101219.38;;;8.60;71.68
62600;BME280;48671;48.922;2.346;2023-02-23T05:16:31;101224.66;;;8.57;71.48
62600;BME280;48671;48.922;2.346;2023-02-23T05:18:57;101199.91;;;8.42;71.66
62600;BME280;48671;48.922;2.346;2023-02-23T05:21:22;101222.06;;;8.57;71.79
62600;BME280;48671;48.922;2.346;2023-02-23T05:23:49;101227.25;;;8.55;72.09
62600;BME280;48671;48.922;2.346;2023-02-23T05:26:14;101237.53;;;8.60;71.99
62600;BME280;48671;48.922;2.346;2023-02-23T05:28:41;101210.97;;;8.50;71.65
62600;BME280;48671;48.922;2.346;2023-02-23T05:31:07;101233.94;;;8.65;71.85
62600;BME280;48671;48.922;2.346;2023-02-23T05:33:33;101235.56;;;8.70;71.98
62600;BME280;48671;48.922;2.346;2023-02-23T05:35:59;101216.81;;;8.58;71.45
62600;BME280;48671;48.922;2.346;2023-02-23T05:38:28;101238.28;;;8.66;71.29
62600;BME280;48671;48.922;2.346;2023-02-23T05:40:54;101224.59;;;8.58;71.65
62600;BME280;48671;48.922;2.346;2023-02-23T05:43:19;101234.78;;;8.67;71.67
62600;BME280;48671;48.922;2.346;2023-02-23T05:45:45;101239.91;;;8.69;71.94
62600;BME280;48671;48.922;2.346;2023-02-23T05:48:11;101244.25;;;8.70;71.46
62600;BME280;48671;48.922;2.346;2023-02-23T05:50:36;101233.94;;;8.65;71.52
62600;BME280;48671;48.922;2.346;2023-02-23T05:53:03;101234.06;;;8.61;71.36
62600;BME280;48671;48.922;2.346;2023-02-23T05:55:28;101233.16;;;8.62;71.40
62600;BME280;48671;48.922;2.346;2023-02-23T05:57:54;101225.53;;;8.56;71.25
62600;BME280;48671;48.922;2.346;2023-02-23T06:00:22;101233.09;;;8.65;71.40
62600;BME280;48671;48.922;2.346;2023-02-23T06:02:47;101211.75;;;8.54;70.99
62600;BME280;48671;48.922;2.346;2023-02-23T06:05:16;101209.97;;;8.56;71.09
62600;BME280;48671;48.922;2.346;2023-02-23T06:07:41;101217.00;;;8.51;70.93
62600;BME280;48671;48.922;2.346;2023-02-23T06:10:07;101243.47;;;8.66;71.40
62600;BME280;48671;48.922;2.346;2023-02-23T06:12:32;101237.50;;;8.61;71.06
62600;BME280;48671;48.922;2.346;2023-02-23T06:14:58;101240.88;;;8.65;71.07
62600;BME280;48671;48.922;2.346;2023-02-23T06:17:23;101232.50;;;8.54;71.02
62600;BME280;48671;48.922;2.346;2023-02-23T06:19:49;101241.94;;;8.56;70.88
62600;BME280;48671;48.922;2.346;2023-02-23T06:22:15;101246.25;;;8.56;71.30
62600;BME280;48671;48.922;2.346;2023-02-23T06:24:43;101236.91;;;8.49;71.38
62600;BME280;48671;48.922;2.346;2023-02-23T06:27:08;101229.19;;;8.47;70.92
62600;BME280;48671;48.922;2.346;2023-02-23T06:29:34;101234.38;;;8.47;70.89
62600;BME280;48671;48.922;2.346;2023-02-23T06:32:01;101218.13;;;8.37;70.84
62600;BME280;48671;48.922;2.346;2023-02-23T06:34:26;101213.06;;;8.31;71.30
62600;BME280;48671;48.922;2.346;2023-02-23T06:36:52;101223.38;;;8.34;71.27
62600;BME280;48671;48.922;2.346;2023-02-23T06:39:17;101228.47;;;8.40;70.91
62600;BME280;48671;48.922;2.346;2023-02-23T06:41:42;101240.47;;;8.44;71.06
62600;BME280;48671;48.922;2.346;2023-02-23T06:44:08;101237.03;;;8.44;70.99
62600;BME280;48671;48.922;2.346;2023-02-23T06:46:33;101232.03;;;8.33;70.82
62600;BME280;48671;48.922;2.346;2023-02-23T06:48:59;101223.44;;;8.31;70.87
62600;BME280;48671;48.922;2.346;2023-02-23T06:51:25;101222.53;;;8.34;71.26
62600;BME280;48671;48.922;2.346;2023-02-23T06:53:50;101244.06;;;8.37;71.09
62600;BME280;48671;48.922;2.346;2023-02-23T06:56:17;101245.81;;;8.35;71.22
62600;BME280;48671;48.922;2.346;2023-02-23T06:58:43;101257.94;;;8.33;70.98
62600;BME280;48671;48.922;2.346;2023-02-23T07:01:09;101236.75;;;8.14;71.08
62600;BME280;48671;48.922;2.346;2023-02-23T07:03:36;101247.81;;;8.23;71.43
62600;BME280;48671;48.922;2.346;2023-02-23T07:06:01;101268.38;;;8.32;71.28
62600;BME280;48671;48.922;2.346;2023-02-23T07:08:28;101245.34;;;8.16;71.29
62600;BME280;48671;48.922;2.346;2023-02-23T07:10:54;101255.63;;;8.21;70.71
62600;BME280;48671;48.922;2.346;2023-02-23T07:13:21;101239.47;;;8.07;71.07
62600;BME280;48671;48.922;2.346;2023-02-23T07:15:47;101246.28;;;8.12;71.21
62600;BME280;48671;48.922;2.346;2023-02-23T07:18:12;101242.84;;;8.12;71.34
62600;BME280;48671;48.922;2.346;2023-02-23T07:20:37;101250.56;;;8.15;71.50
62600;BME280;48671;48.922;2.346;2023-02-23T07:23:03;101260.78;;;8.23;71.60
62600;BME280;48671;48.922;2.346;2023-02-23T07:25:29;101263.25;;;8.29;71.20
62600;BME280;48671;48.922;2.346;2023-02-23T07:27:55;101266.63;;;8.32;71.31
62600;BME280;48671;48.922;2.346;2023-02-23T07:30:20;101279.44;;;8.41;71.07
62600;BME280;48671;48.922;2.346;2023-02-23T07:32:52;101292.16;;;8.52;71.06
62600;BME280;48671;48.922;2.346;2023-02-23T07:35:18;101281.84;;;8.51;71.27
62600;BME280;48671;48.922;2.346;2023-02-23T07:37:44;101300.47;;;8.68;71.33
62600;BME280;48671;48.922;2.346;2023-02-23T07:40:10;101268.75;;;8.57;70.98
62600;BME280;48671;48.922;2.346;2023-02-23T07:42:35;101291.00;;;8.67;71.18
62600;BME280;48671;48.922;2.346;2023-02-23T07:45:01;101286.69;;;8.66;70.91
62600;BME280;48671;48.922;2.346;2023-02-23T07:47:26;101309.03;;;8.73;70.76
62600;BME280;48671;48.922;2.346;2023-02-23T07:49:59;101303.06;;;8.68;71.12
62600;BME280;48671;48.922;2.346;2023-02-23T07:52:26;101305.56;;;8.73;70.82
62600;BME280;48671;48.922;2.346;2023-02-23T07:54:52;101309.88;;;8.74;71.25
62600;BME280;48671;48.922;2.346;2023-02-23T07:57:18;101303.84;;;8.73;71.19
62600;BME280;48671;48.922;2.346;2023-02-23T07:59:45;101302.94;;;8.74;70.71
62600;BME280;48671;48.922;2.346;2023-02-23T08:02:12;101312.41;;;8.77;70.90
62600;BME280;48671;48.922;2.346;2023-02-23T08:04:38;101292.75;;;8.66;71.13
62600;BME280;48671;48.922;2.346;2023-02-23T08:07:05;101295.34;;;8.66;71.04
62600;BME280;48671;48.922;2.346;2023-02-23T08:09:34;101313.22;;;8.79;71.02
62600;BME280;48671;48.922;2.346;2023-02-23T08:12:00;101299.66;;;8.66;70.63
62600;BME280;48671;48.922;2.346;2023-02-23T08:14:25;101308.09;;;8.76;70.76
62600;BME280;48671;48.922;2.346;2023-02-23T08:16:51;101306.53;;;8.68;71.04
62600;BME280;48671;48.922;2.346;2023-02-23T08:19:16;101303.03;;;8.70;70.98
62600;BME280;48671;48.922;2.346;2023-02-23T08:21:42;101300.38;;;8.73;70.71
62600;BME280;48671;48.922;2.346;2023-02-23T08:24:07;101308.88;;;8.79;70.65
62600;BME280;48671;48.922;2.346;2023-02-23T08:26:34;101312.22;;;8.84;71.10
62600;BME280;48671;48.922;2.346;2023-02-23T08:29:00;101295.78;;;8.85;70.42
62600;BME280;48671;48.922;2.346;2023-02-23T08:31:25;101294.06;;;8.84;70.85
62600;BME280;48671;48.922;2.346;2023-02-23T08:33:52;101293.16;;;8.87;70.31
62600;BME280;48671;48.922;2.346;2023-02-23T08:36:17;101293.09;;;8.88;70.58
62600;BME280;48671;48.922;2.346;2023-02-23T08:38:44;101308.34;;;9.02;70.78
62600;BME280;48671;48.922;2.346;2023-02-23T08:41:10;101308.13;;;9.13;70.45
62600;BME280;48671;48.922;2.346;2023-02-23T08:43:35;101309.69;;;9.20;70.44
62600;BME280;48671;48.922;2.346;2023-02-23T08:46:04;101304.44;;;9.23;70.14
62600;BME280;48671;48.922;2.346;2023-02-23T08:48:29;101311.19;;;9.30;69.92
62600;BME280;48671;48.922;2.346;2023-02-23T08:50:56;101322.31;;;9.35;69.65
62600;BME280;48671;48.922;2.346;2023-02-23T08:53:22;101316.22;;;9.36;69.89
62600;BME280;48671;48.922;2.346;2023-02-23T08:55:57;101321.13;;;9.49;69.41
62600;BME280;48671;48.922;2.346;2023-02-23T08:58:23;101314.81;;;9.59;69.07
62600;BME280;48671;48.922;2.346;2023-02-23T09:00:48;101328.53;;;9.64;68.24
62600;BME280;48671;48.922;2.346;2023-02-23T09:03:14;101314.13;;;9.52;68.91
62600;BME280;48671;48.922;2.346;2023-02-23T09:05:39;101320.00;;;9.59;69.06
62600;BME280;48671;48.922;2.346;2023-02-23T09:08:04;101319.19;;;9.57;68.73
62600;BME280;48671;48.922;2.346;2023-02-23T09:10:31;101328.78;;;9.55;68.65
62600;BME280;48671;48.922;2.346;2023-02-23T09:12:57;101326.19;;;9.55;68.95
62600;BME280;48671;48.922;2.346;2023-02-23T09:15:23;101301.28;;;9.45;68.52
62600;BME280;48671;48.922;2.346;2023-02-23T09:17:48;101320.09;;;9.54;69.08
62600;BME280;48671;48.922;2.346;2023-02-23T09:20:15;101334.84;;;9.54;68.85
62600;BME280;48671;48.922;2.346;2023-02-23T09:22:41;101327.06;;;9.54;69.33
62600;BME280;48671;48.922;2.346;2023-02-23T09:25:22;101318.56;;;9.47;69.25
62600;BME280;48671;48.922;2.346;2023-02-23T09:27:49;101325.50;;;9.47;69.24
62600;BME280;48671;48.922;2.346;2023-02-23T09:30:15;101325.47;;;9.48;68.87
62600;BME280;48671;48.922;2.346;2023-02-23T09:32:46;101330.97;;;9.36;69.07
62600;BME280;48671;48.922;2.346;2023-02-23T09:35:12;101349.22;;;9.33;69.23
62600;BME280;48671;48.922;2.346;2023-02-23T09:37:43;101338.91;;;9.28;69.30
62600;BME280;48671;48.922;2.346;2023-02-23T09:40:14;101333.09;;;9.19;69.51
62600;BME280;48671;48.922;2.346;2023-02-23T09:45:41;101358.00;;;9.27;69.62
62600;BME280;48671;48.922;2.346;2023-02-23T09:48:16;101357.09;;;9.28;69.39
62600;BME280;48671;48.922;2.346;2023-02-23T09:50:50;101356.38;;;9.22;69.38
62600;BME280;48671;48.922;2.346;2023-02-23T09:55:44;101362.78;;;9.07;69.86
62600;BME280;48671;48.922;2.346;2023-02-23T09:58:21;101356.81;;;9.03;69.56
62600;BME280;48671;48.922;2.346;2023-02-23T10:00:57;101363.63;;;9.07;70.16
62600;BME280;48671;48.922;2.346;2023-02-23T10:03:29;101370.56;;;9.07;69.77
62600;BME280;48671;48.922;2.346;2023-02-23T10:06:01;101357.78;;;8.99;69.89
62600;BME280;48671;48.922;2.346;2023-02-23T10:13:37;101368.88;;;9.04;70.42
62600;BME280;48671;48.922;2.346;2023-02-23T10:21:39;101377.22;;;9.19;70.13
62600;BME280;48671;48.922;2.346;2023-02-23T10:24:17;101373.78;;;9.18;69.98
62600;BME280;48671;48.922;2.346;2023-02-23T10:31:55;101365.03;;;9.22;69.61
62600;BME280;48671;48.922;2.346;2023-02-23T10:34:22;101363.38;;;9.20;69.88
62600;BME280;48671;48.922;2.346;2023-02-23T10:39:23;101359.75;;;9.25;69.73
62600;BME280;48671;48.922;2.346;2023-02-23T10:41:49;101362.44;;;9.22;69.92
62600;BME280;48671;48.922;2.346;2023-02-23T10:44:21;101361.69;;;9.17;69.23
62600;BME280;48671;48.922;2.346;2023-02-23T10:46:58;101362.59;;;9.14;69.69
62600;BME280;48671;48.922;2.346;2023-02-23T10:49:39;101369.44;;;9.19;70.39
62600;BME280;48671;48.922;2.346;2023-02-23T10:52:12;101371.81;;;9.28;69.93
62600;BME280;48671;48.922;2.346;2023-02-23T10:54:39;101363.88;;;9.35;69.91
62600;BME280;48671;48.922;2.346;2023-02-23T10:57:11;101362.00;;;9.41;69.61
62600;BME280;48671;48.922;2.346;2023-02-23T10:59:58;101365.16;;;9.53;69.13
62600;BME280;48671;48.922;2.346;2023-02-23T11:02:25;101363.13;;;9.66;69.79
62600;BME280;48671;48.922;2.346;2023-02-23T11:04:58;101357.72;;;9.75;68.95
62600;BME280;48671;48.922;2.346;2023-02-23T11:07:26;101348.25;;;9.73;68.94
62600;BME280;48671;48.922;2.346;2023-02-23T11:10:19;101352.38;;;9.81;69.08
62600;BME280;48671;48.922;2.346;2023-02-23T11:12:44;101362.69;;;9.84;69.11
62600;BME280;48671;48.922;2.346;2023-02-23T11:15:31;101347.88;;;9.87;68.64
62600;BME280;48671;48.922;2.346;2023-02-23T11:18:00;101348.88;;;9.82;68.41
62600;BME280;48671;48.922;2.346;2023-02-23T11:20:35;101343.72;;;9.81;68.44
62600;BME280;48671;48.922;2.346;2023-02-23T11:23:11;101344.50;;;9.84;68.66
62600;BME280;48671;48.922;2.346;2023-02-23T11:25:43;101352.84;;;9.96;68.98
62600;BME280;48671;48.922;2.346;2023-02-23T11:28:17;101344.00;;;10.03;68.55
62600;BME280;48671;48.922;2.346;2023-02-23T11:30:45;101336.09;;;10.07;68.54
62600;BME280;48671;48.922;2.346;2023-02-23T11:33:16;101330.81;;;10.11;68.20
62600;BME280;48671;48.922;2.346;2023-02-23T11:35:43;101320.53;;;10.06;68.31
62600;BME280;48671;48.922;2.346;2023-02-23T11:38:19;101330.53;;;10.20;68.16
62600;BME280;48671;48.922;2.346;2023-02-23T11:40:59;101338.25;;;10.23;68.17
62600;BME280;48671;48.922;2.346;2023-02-23T11:43:25;101333.97;;;10.22;68.08
62600;BME280;48671;48.922;2.346;2023-02-23T11:45:53;101315.81;;;10.20;68.11
62600;BME280;48671;48.922;2.346;2023-02-23T11:48:38;101337.13;;;10.33;68.15
62600;BME280;48671;48.922;2.346;2023-02-23T11:51:07;101328.28;;;10.40;68.91
62600;BME280;48671;48.922;2.346;2023-02-23T11:53:36;101315.16;;;10.45;68.41
62600;BME280;48671;48.922;2.346;2023-02-23T11:56:03;101322.91;;;10.46;68.09
62600;BME280;48671;48.922;2.346;2023-02-23T11:58:45;101325.56;;;10.45;67.61
62600;BME280;48671;48.922;2.346;2023-02-23T12:01:14;101325.47;;;10.48;67.94
62600;BME280;48671;48.922;2.346;2023-02-23T12:03:51;101321.94;;;10.50;67.16
62600;BME280;48671;48.922;2.346;2023-02-23T12:09:16;101320.13;;;10.52;67.91
62600;BME280;48671;48.922;2.346;2023-02-23T12:11:52;101313.19;;;10.53;67.15
62600;BME280;48671;48.922;2.346;2023-02-23T12:14:25;101312.38;;;10.51;67.38
62600;BME280;48671;48.922;2.346;2023-02-23T12:16:57;101312.09;;;10.60;67.08
62600;BME280;48671;48.922;2.346;2023-02-23T12:19:33;101301.81;;;10.55;67.01
62600;BME280;48671;48.922;2.346;2023-02-23T12:22:05;101306.09;;;10.58;67.35
62600;BME280;48671;48.922;2.346;2023-02-23T12:25:08;101313.63;;;10.67;67.64
62600;BME280;48671;48.922;2.346;2023-02-23T12:27:50;101302.28;;;10.70;67.67
62600;BME280;48671;48.922;2.346;2023-02-23T12:30:30;101308.91;;;10.80;68.16
62600;BME280;48671;48.922;2.346;2023-02-23T12:38:09;101303.28;;;10.94;66.87
62600;BME280;48671;48.922;2.346;2023-02-23T12:40:38;101298.88;;;10.96;66.77
62600;BME280;48671;48.922;2.346;2023-02-23T12:43:14;101293.63;;;10.97;66.42
62600;BME280;48671;48.922;2.346;2023-02-23T12:45:52;101302.16;;;11.02;66.58
62600;BME280;48671;48.922;2.346;2023-02-23T12:48:42;101296.03;;;11.04;66.71
62600;BME280;48671;48.922;2.346;2023-02-23T12:51:25;101298.53;;;11.07;66.20
62600;BME280;48671;48.922;2.346;2023-02-23T12:53:52;101301.81;;;11.13;66.60
62600;BME280;48671;48.922;2.346;2023-02-23T13:02:20;101307.00;;;11.41;66.06
62600;BME280;48671;48.922;2.346;2023-02-23T13:05:14;101286.28;;;11.37;65.43
62600;BME280;48671;48.922;2.346;2023-02-23T13:08:07;101301.06;;;11.36;65.72
62600;BME280;48671;48.922;2.346;2023-02-23T13:13:28;101295.41;;;11.23;65.32
62600;BME280;48671;48.922;2.346;2023-02-23T13:18:46;101297.34;;;11.17;65.36
62600;BME280;48671;48.922;2.346;2023-02-23T13:29:39;101291.28;;;11.16;66.12
62600;BME280;48671;48.922;2.346;2023-02-23T13:32:18;101285.38;;;11.11;66.41
62600;BME280;48671;48.922;2.346;2023-02-23T13:34:50;101288.69;;;11.16;66.49
62600;BME280;48671;48.922;2.346;2023-02-23T13:37:21;101279.84;;;11.22;66.04
62600;BME280;48671;48.922;2.346;2023-02-23T13:39:55;101270.31;;;11.21;65.97
62600;BME280;48671;48.922;2.346;2023-02-23T13:44:57;101284.16;;;11.21;65.63
62600;BME280;48671;48.922;2.346;2023-02-23T13:47:43;101284.97;;;11.23;65.80
62600;BME280;48671;48.922;2.346;2023-02-23T13:50:32;101286.69;;;11.24;65.84
62600;BME280;48671;48.922;2.346;2023-02-23T13:53:04;101266.06;;;11.18;65.47
62600;BME280;48671;48.922;2.346;2023-02-23T13:58:13;101269.44;;;11.20;66.01
62600;BME280;48671;48.922;2.346;2023-02-23T14:00:43;101271.97;;;11.23;65.71
62600;BME280;48671;48.922;2.346;2023-02-23T14:03:25;101277.78;;;11.32;65.48
62600;BME280;48671;48.922;2.346;2023-02-23T14:05:56;101265.66;;;11.31;65.73
62600;BME280;48671;48.922;2.346;2023-02-23T14:08:32;101274.22;;;11.34;65.54
62600;BME280;48671;48.922;2.346;2023-02-23T14:10:59;101268.16;;;11.34;65.97
62600;BME280;48671;48.922;2.346;2023-02-23T14:13:28;101273.13;;;11.41;65.82
62600;BME280;48671;48.922;2.346;2023-02-23T14:16:12;101278.97;;;11.48;65.41
62600;BME280;48671;48.922;2.346;2023-02-23T14:21:36;101268.38;;;11.53;65.34
62600;BME280;48671;48.922;2.346;2023-02-23T14:24:16;101270.16;;;11.52;64.45
62600;BME280;48671;48.922;2.346;2023-02-23T14:27:23;101275.50;;;11.47;64.66
62600;BME280;48671;48.922;2.346;2023-02-23T14:30:14;101271.38;;;11.42;64.89
62600;BME280;48671;48.922;2.346;2023-02-23T14:32:44;101274.00;;;11.40;65.12
62600;BME280;48671;48.922;2.346;2023-02-23T14:35:35;101271.47;;;11.39;65.17
62600;BME280;48671;48.922;2.346;2023-02-23T14:38:10;101272.41;;;11.36;64.90
62600;BME280;48671;48.922;2.346;2023-02-23T14:40:41;101265.59;;;11.32;64.94
62600;BME280;48671;48.922;2.346;2023-02-23T14:43:59;101270.84;;;11.31;65.14
62600;BME280;48671;48.922;2.346;2023-02-23T14:46:20;101268.25;;;11.31;65.03
62600;BME280;48671;48.922;2.346;2023-02-23T14:49:08;101268.41;;;11.26;64.96
62600;BME280;48671;48.922;2.346;2023-02-23T14:51:44;101265.94;;;11.21;64.95
62600;BME280;48671;48.922;2.346;2023-02-23T14:54:27;101267.59;;;11.24;65.31